Time;durP1;ratioP1;P1;durP2;ratioP2;P2;SDS_P1;SDS_P2;PMS_P1;PMS_P2;Temp;Humidity;BMP_temperature;BMP_pressure;BME280_temperature;BME280_humidity;BME280_pressure;Samples;Min_cycle;Max_cycle;Signal;HPM_P1;HPM_P2
2022/07/05 00:00:17;;;;;;;15.43;11.40;;;;;;;25.66;87.49;100784.83;1740812;81;21111;-70
2022/07/05 00:02:44;;;;;;;19.77;11.70;;;;;;;25.78;86.30;100785.38;1755256;81;21053;-70
2022/07/05 00:05:11;;;;;;;22.62;12.93;;;;;;;25.55;87.09;100782.00;1756946;80;21532;-70
2022/07/05 00:07:39;;;;;;;24.92;12.28;;;;;;;25.15;89.74;100782.09;1762326;79;21038;-70
2022/07/05 00:10:07;;;;;;;21.33;13.53;;;;;;;25.15;88.84;100782.59;1756380;80;21051;-71
2022/07/05 00:12:35;;;;;;;25.00;15.38;;;;;;;24.95;91.37;100777.53;1778657;80;20979;-71
2022/07/05 00:15:04;;;;;;;19.70;12.88;;;;;;;25.27;90.10;100781.38;1767609;80;21064;-70
2022/07/05 00:17:31;;;;;;;21.12;13.28;;;;;;;25.61;88.17;100779.70;1764131;80;21027;-70
2022/07/05 00:19:58;;;;;;;20.17;13.70;;;;;;;24.75;91.44;100782.16;1775704;80;21072;-70
2022/07/05 00:22:26;;;;;;;19.98;12.53;;;;;;;24.39;95.52;100773.45;1770961;79;21037;-70
2022/07/05 00:24:53;;;;;;;19.10;12.68;;;;;;;24.08;98.62;100780.89;1775469;80;21109;-70
2022/07/05 00:27:20;;;;;;;22.45;12.95;;;;;;;23.99;99.79;100776.87;1766215;80;21007;-70
2022/07/05 00:29:47;;;;;;;20.82;13.53;;;;;;;24.04;99.89;100780.86;1769942;79;21030;-70
2022/07/05 00:32:15;;;;;;;22.75;12.88;;;;;;;23.92;100.00;100772.34;1765025;80;21473;-71
2022/07/05 00:34:42;;;;;;;18.40;12.95;;;;;;;24.76;98.01;100780.38;1764705;80;21599;-70
2022/07/05 00:37:09;;;;;;;18.17;13.10;;;;;;;23.98;100.00;100776.52;1756303;80;21070;-70
2022/07/05 00:39:36;;;;;;;18.27;12.50;;;;;;;24.68;95.75;100769.30;1762456;81;21040;-71
2022/07/05 00:42:04;;;;;;;19.17;12.75;;;;;;;24.45;96.61;100771.53;1744664;81;21094;-71
2022/07/05 00:44:36;;;;;;;18.12;12.28;;;;;;;24.76;91.52;100773.80;1748151;80;21039;-70
2022/07/05 00:47:05;;;;;;;16.65;12.07;;;;;;;27.85;80.67;100773.13;1762700;80;21594;-71
2022/07/05 00:49:34;;;;;;;15.58;11.93;;;;;;;25.28;88.59;100777.74;1768408;79;20991;-70
2022/07/05 00:52:05;;;;;;;16.07;12.33;;;;;;;25.09;91.15;100774.82;1761995;79;21066;-70
2022/07/05 00:54:36;;;;;;;21.55;11.85;;;;;;;24.87;92.16;100776.16;1749440;81;21273;-70
2022/07/05 00:57:05;;;;;;;15.48;11.03;;;;;;;23.01;100.00;100779.52;1770005;81;21063;-71
2022/07/05 00:59:32;;;;;;;17.67;11.73;;;;;;;24.56;95.55;100773.97;1779511;80;21016;-70
2022/07/05 01:02:00;;;;;;;14.98;11.10;;;;;;;24.50;96.00;100774.58;1767002;80;21078;-70
2022/07/05 01:04:27;;;;;;;18.50;11.80;;;;;;;24.86;92.21;100780.26;1773957;80;21032;-70
2022/07/05 01:06:55;;;;;;;15.83;11.48;;;;;;;25.13;91.18;100779.30;1773981;79;21078;-70
2022/07/05 01:09:23;;;;;;;14.38;10.95;;;;;;;23.29;100.00;100786.17;1765884;79;21519;-70
2022/07/05 01:11:51;;;;;;;14.23;10.98;;;;;;;25.01;95.75;100778.72;1769775;79;21022;-70
2022/07/05 01:14:22;;;;;;;15.65;11.30;;;;;;;23.54;99.53;100785.53;1768807;80;21547;-69
2022/07/05 01:16:52;;;;;;;16.75;10.95;;;;;;;24.06;99.06;100786.30;1766698;79;21010;-70
2022/07/05 01:19:21;;;;;;;14.13;10.38;;;;;;;23.43;100.00;100779.14;1741244;81;21019;-70
2022/07/05 01:21:50;;;;;;;15.03;11.28;;;;;;;23.26;100.00;100785.98;1760623;81;20988;-70
2022/07/05 01:24:20;;;;;;;12.70;10.58;;;;;;;23.08;100.00;100781.14;1770088;81;21571;-70
2022/07/05 01:26:49;;;;;;;14.35;10.43;;;;;;;23.06;100.00;100778.65;1783276;80;21035;-70
2022/07/05 01:29:17;;;;;;;15.65;10.63;;;;;;;23.29;100.00;100779.61;1768719;80;21514;-70
2022/07/05 01:31:45;;;;;;;15.43;10.90;;;;;;;23.25;100.00;100777.75;1751042;80;21480;-70
2022/07/05 01:34:13;;;;;;;17.25;11.22;;;;;;;23.40;100.00;100772.38;1756620;79;21036;-70
2022/07/05 01:36:40;;;;;;;18.15;12.00;;;;;;;23.23;100.00;100777.06;1779341;80;21047;-70
2022/07/05 01:39:08;;;;;;;18.60;12.15;;;;;;;23.28;100.00;100774.85;1768169;80;21344;-70
2022/07/05 01:41:36;;;;;;;16.77;12.03;;;;;;;22.37;100.00;100775.73;1741069;81;21035;-70
2022/07/05 01:44:04;;;;;;;17.52;11.80;;;;;;;22.76;100.00;100771.77;1749929;81;21063;-70
2022/07/05 01:46:37;;;;;;;19.50;12.68;;;;;;;23.31;100.00;100775.86;1742077;81;21504;-70
2022/07/05 01:49:12;;;;;;;18.62;12.03;;;;;;;24.47;100.00;100767.44;1777737;80;21079;-71
2022/07/05 01:52:02;;;;;;;19.00;12.53;;;;;;;23.28;100.00;100776.66;1772071;79;21026;-70
2022/07/05 01:54:29;;;;;;;19.12;12.07;;;;;;;23.20;100.00;100777.37;1767605;80;21549;-70
2022/07/05 01:56:58;;;;;;;17.62;11.83;;;;;;;23.62;98.50;100771.64;1768517;80;20980;-69
2022/07/05 01:59:28;;;;;;;18.00;11.93;;;;;;;23.04;100.00;100774.52;1762585;80;21471;-70
2022/07/05 02:01:55;;;;;;;15.88;10.85;;;;;;;22.97;100.00;100776.83;1768098;80;21541;-70
2022/07/05 02:04:22;;;;;;;18.67;10.72;;;;;;;23.06;100.00;100772.58;1741778;81;21020;-70
2022/07/05 02:06:49;;;;;;;17.25;11.48;;;;;;;22.65;100.00;100778.00;1753780;80;21032;-70
2022/07/05 02:09:16;;;;;;;14.75;11.63;;;;;;;22.63;100.00;100785.19;1773595;80;21109;-70
2022/07/05 02:11:44;;;;;;;18.12;11.78;;;;;;;22.35;100.00;100781.11;1766542;80;21002;-70
2022/07/05 02:14:11;;;;;;;17.70;12.43;;;;;;;22.50;100.00;100780.69;1747115;80;21102;-70
2022/07/05 02:16:42;;;;;;;18.20;12.90;;;;;;;22.60;100.00;100785.45;1748260;80;21555;-70
2022/07/05 02:19:09;;;;;;;18.02;12.90;;;;;;;22.77;100.00;100783.45;1770748;80;21016;-70
2022/07/05 02:21:38;;;;;;;16.45;12.15;;;;;;;22.82;100.00;100789.58;1774199;79;21507;-70
2022/07/05 02:31:34;;;;;;;19.23;12.60;;;;;;;22.41;100.00;100800.72;1724442;82;21021;-72
2022/07/05 02:34:03;;;;;;;15.58;12.23;;;;;;;22.44;100.00;100806.98;1729456;82;21515;-73
2022/07/05 02:36:30;;;;;;;16.50;11.93;;;;;;;22.85;100.00;100801.12;1738169;82;21543;-72
2022/07/05 02:38:57;;;;;;;17.75;11.90;;;;;;;22.98;100.00;100803.44;1746649;82;21066;-72
2022/07/05 02:41:24;;;;;;;14.10;11.65;;;;;;;22.55;100.00;100803.42;1735399;82;20984;-72
2022/07/05 02:43:52;;;;;;;20.40;12.58;;;;;;;22.99;100.00;100801.14;1728121;82;21070;-72
2022/07/05 02:46:21;;;;;;;16.25;12.63;;;;;;;22.84;100.00;100804.70;1731617;82;21086;-72
2022/07/05 02:48:52;;;;;;;18.60;12.07;;;;;;;23.05;100.00;100799.79;1728606;82;21040;-72
2022/07/05 02:51:20;;;;;;;17.35;11.65;;;;;;;23.06;100.00;100804.09;1740993;82;21068;-72
2022/07/05 02:53:48;;;;;;;18.50;12.53;;;;;;;23.06;100.00;100804.91;1713226;82;21043;-72
2022/07/05 02:56:15;;;;;;;19.48;12.03;;;;;;;23.91;100.00;100806.20;1724840;82;21575;-72
2022/07/05 02:58:42;;;;;;;17.37;11.55;;;;;;;26.06;89.76;100799.66;1723893;82;21536;-72
2022/07/05 03:01:10;;;;;;;18.77;12.10;;;;;;;24.04;96.27;100809.29;1702075;83;21075;-73
2022/07/05 03:03:38;;;;;;;17.80;12.10;;;;;;;25.74;93.50;100798.05;1707687;83;21122;-72
2022/07/05 03:06:06;;;;;;;14.10;11.40;;;;;;;26.31;85.44;100801.33;1701298;84;21028;-72
2022/07/05 03:08:34;;;;;;;14.70;11.75;;;;;;;26.68;83.98;100807.16;1699569;83;21078;-72
2022/07/05 03:11:01;;;;;;;16.48;11.85;;;;;;;26.80;81.49;100803.18;1655441;85;21497;-72
2022/07/05 03:13:30;;;;;;;14.10;11.50;;;;;;;25.66;83.04;100804.61;1670127;84;21075;-73
2022/07/05 03:15:57;;;;;;;17.10;11.53;;;;;;;23.79;99.08;100811.64;1695259;84;21063;-72
2022/07/05 03:18:25;;;;;;;15.23;12.33;;;;;;;23.71;100.00;100808.07;1711379;84;21578;-72
2022/07/05 03:20:52;;;;;;;15.63;11.38;;;;;;;24.05;100.00;100807.48;1740948;81;21590;-73
2022/07/05 03:23:20;;;;;;;19.25;12.03;;;;;;;24.15;100.00;100806.46;1721323;82;21064;-73
2022/07/05 03:25:49;;;;;;;18.65;12.45;;;;;;;24.23;99.66;100800.92;1700419;83;21090;-73
2022/07/05 03:28:16;;;;;;;16.97;12.43;;;;;;;24.92;96.53;100802.02;1710136;82;21528;-73
2022/07/05 03:30:44;;;;;;;14.93;11.65;;;;;;;24.99;95.56;100811.80;1702649;84;21080;-73
2022/07/05 03:33:11;;;;;;;17.32;12.35;;;;;;;24.59;96.64;100809.67;1701987;83;21045;-72
2022/07/05 03:35:41;;;;;;;19.50;12.45;;;;;;;24.51;98.83;100806.98;1674019;84;21087;-73
2022/07/05 03:38:10;;;;;;;17.02;12.78;;;;;;;24.38;100.00;100808.16;1693336;84;21043;-73
2022/07/05 03:40:37;;;;;;;20.50;13.18;;;;;;;24.46;100.00;100806.09;1676629;84;21055;-73
2022/07/05 03:43:04;;;;;;;17.27;12.88;;;;;;;24.90;98.95;100809.25;1690728;84;21052;-72
2022/07/05 03:45:34;;;;;;;17.02;13.20;;;;;;;25.02;98.83;100812.47;1688630;84;21055;-72
2022/07/05 03:48:04;;;;;;;18.90;13.25;;;;;;;25.03;96.08;100815.45;1698884;83;21073;-73
2022/07/05 03:50:32;;;;;;;19.05;13.25;;;;;;;25.14;96.65;100810.76;1690723;84;21045;-73
2022/07/05 03:52:59;;;;;;;18.02;13.70;;;;;;;25.55;95.39;100811.50;1686451;84;21044;-73
2022/07/05 03:55:28;;;;;;;19.25;14.30;;;;;;;25.49;95.83;100806.36;1684392;84;21056;-72
2022/07/05 03:57:55;;;;;;;18.95;13.95;;;;;;;25.43;95.26;100806.98;1667523;84;21065;-73
2022/07/05 04:00:24;;;;;;;19.65;14.43;;;;;;;25.55;95.53;100801.77;1690435;84;21040;-73
2022/07/05 04:02:53;;;;;;;18.05;13.88;;;;;;;25.92;94.13;100799.79;1690664;84;21087;-73
2022/07/05 04:05:21;;;;;;;23.95;14.68;;;;;;;26.20;93.32;100802.98;1691862;84;21508;-72
2022/07/05 04:07:54;;;;;;;19.40;14.07;;;;;;;25.80;93.83;100805.81;1722060;83;21052;-73
2022/07/05 04:10:23;;;;;;;25.32;15.28;;;;;;;25.84;97.04;100807.14;1722052;83;21040;-73
2022/07/05 04:12:51;;;;;;;26.27;14.85;;;;;;;26.17;94.46;100803.30;1722066;83;21087;-73
2022/07/05 04:15:19;;;;;;;20.55;14.40;;;;;;;26.59;92.78;100806.34;1700268;83;21048;-74
2022/07/05 04:17:49;;;;;;;23.05;15.25;;;;;;;27.50;89.97;100804.38;1696678;84;21088;-73
2022/07/05 04:20:17;;;;;;;16.05;13.90;;;;;;;25.56;97.31;100802.09;1689339;82;21079;-73
2022/07/05 04:22:45;;;;;;;17.37;14.50;;;;;;;25.97;99.05;100806.71;1687431;84;21151;-73
2022/07/05 04:25:16;;;;;;;18.73;15.05;;;;;;;26.10;98.50;100808.41;1680660;84;21142;-73
2022/07/05 04:27:48;;;;;;;22.75;15.63;;;;;;;26.43;92.38;100808.44;1679675;84;21515;-73
2022/07/05 04:30:17;;;;;;;26.37;15.35;;;;;;;26.42;96.38;100805.48;1694433;83;21021;-73
2022/07/05 04:32:45;;;;;;;21.95;15.05;;;;;;;26.74;96.20;100813.09;1696656;84;21532;-73
2022/07/05 04:35:14;;;;;;;21.35;15.30;;;;;;;26.95;94.30;100813.91;1690697;84;21488;-73
2022/07/05 04:37:42;;;;;;;20.23;14.80;;;;;;;29.23;84.06;100818.08;1689046;84;21099;-73
2022/07/05 04:40:12;;;;;;;22.25;15.23;;;;;;;29.48;79.60;100817.79;1691678;84;21064;-73
2022/07/05 04:42:41;;;;;;;19.42;15.23;;;;;;;29.66;78.04;100818.73;1675982;84;21563;-73
2022/07/05 04:45:10;;;;;;;19.82;14.75;;;;;;;29.81;77.63;100824.88;1686071;84;21011;-73
2022/07/05 04:47:37;;;;;;;21.77;15.03;;;;;;;30.02;76.47;100819.28;1665425;84;21538;-73
2022/07/05 04:50:06;;;;;;;22.27;15.20;;;;;;;30.13;75.72;100824.08;1695304;84;21049;-73
2022/07/05 04:52:34;;;;;;;21.80;14.85;;;;;;;28.41;82.46;100825.41;1692629;84;21558;-73
2022/07/05 04:55:02;;;;;;;22.45;14.63;;;;;;;29.85;81.05;100819.52;1693535;84;21106;-73
2022/07/05 04:57:38;;;;;;;20.00;13.62;;;;;;;30.47;76.99;100826.08;1698858;84;21532;-73
2022/07/05 05:00:08;;;;;;;23.92;15.05;;;;;;;28.84;82.05;100823.08;1695955;84;21564;-73
2022/07/05 05:02:36;;;;;;;20.82;14.28;;;;;;;28.86;84.66;100825.05;1693081;84;21615;-73
2022/07/05 05:05:04;;;;;;;19.98;15.10;;;;;;;29.09;81.81;100829.47;1695006;84;21100;-73
2022/07/05 05:07:32;;;;;;;23.22;15.15;;;;;;;29.15;82.77;100829.58;1695752;84;21129;-73
2022/07/05 05:10:01;;;;;;;20.82;15.53;;;;;;;29.24;82.72;100826.36;1690433;84;21510;-73
2022/07/05 05:12:28;;;;;;;19.98;15.08;;;;;;;29.59;81.41;100828.45;1695786;84;21048;-73
2022/07/05 05:14:55;;;;;;;28.12;15.30;;;;;;;29.66;80.44;100826.69;1695614;84;21096;-72
2022/07/05 05:17:22;;;;;;;22.70;15.08;;;;;;;29.71;80.87;100823.84;1692168;84;21021;-73
2022/07/05 05:19:51;;;;;;;23.95;15.25;;;;;;;30.93;78.97;100810.22;1698719;83;21060;-73
2022/07/05 05:22:18;;;;;;;19.48;14.60;;;;;;;29.79;79.50;100824.23;1718087;82;21047;-73
2022/07/05 05:24:45;;;;;;;23.18;14.87;;;;;;;29.89;78.16;100830.59;1699175;82;21056;-74
2022/07/05 05:27:13;;;;;;;18.95;15.00;;;;;;;30.25;75.21;100829.72;1722041;82;21076;-74
2022/07/05 05:29:40;;;;;;;19.07;14.35;;;;;;;30.28;75.35;100824.05;1706216;82;21064;-74
2022/07/05 05:32:07;;;;;;;16.93;13.50;;;;;;;32.82;67.44;100820.24;1711403;83;21048;-72
2022/07/05 05:34:35;;;;;;;20.43;14.35;;;;;;;30.82;70.83;100819.53;1714831;83;21056;-72
2022/07/05 05:37:03;;;;;;;17.60;14.13;;;;;;;30.61;72.41;100824.36;1714763;84;21075;-72
2022/07/05 05:39:31;;;;;;;16.23;13.43;;;;;;;30.69;72.68;100823.41;1714570;84;21107;-72
2022/07/05 05:41:58;;;;;;;17.80;13.50;;;;;;;30.74;72.63;100825.80;1714803;84;21110;-72
2022/07/05 05:44:25;;;;;;;15.13;11.05;;;;;;;30.76;72.58;100820.30;1714985;84;21520;-72
2022/07/05 05:46:53;;;;;;;15.95;12.07;;;;;;;31.00;70.77;100825.69;1715094;84;21076;-72
2022/07/05 05:49:20;;;;;;;12.73;10.05;;;;;;;31.08;69.36;100824.23;1714565;84;21044;-72
2022/07/05 05:51:47;;;;;;;14.85;12.25;;;;;;;32.80;65.92;100826.81;1714979;84;21072;-72
2022/07/05 05:54:14;;;;;;;10.78;8.60;;;;;;;31.56;61.57;100832.80;1714623;84;21168;-72
2022/07/05 05:56:43;;;;;;;15.48;9.43;;;;;;;31.76;61.11;100830.22;1714882;84;21017;-73
2022/07/05 05:59:10;;;;;;;14.50;9.98;;;;;;;32.12;60.51;100827.27;1714662;83;21052;-72
2022/07/05 06:01:37;;;;;;;11.60;9.95;;;;;;;32.38;60.08;100828.31;1714813;84;21091;-73
2022/07/05 06:04:04;;;;;;;11.05;9.13;;;;;;;32.35;58.58;100827.40;1714755;84;21084;-72
2022/07/05 06:06:31;;;;;;;14.20;9.00;;;;;;;32.39;57.96;100828.63;1714780;84;21067;-72
2022/07/05 06:08:58;;;;;;;12.53;9.23;;;;;;;32.50;57.60;100830.70;1714700;84;21052;-72
2022/07/05 06:11:25;;;;;;;9.68;8.58;;;;;;;32.50;57.48;100823.20;1714747;84;21060;-72
2022/07/05 06:13:52;;;;;;;14.07;9.33;;;;;;;32.58;57.66;100818.21;1714891;84;21012;-72
2022/07/05 06:16:19;;;;;;;12.47;9.00;;;;;;;32.70;56.17;100820.56;1714841;84;21146;-73
2022/07/05 06:18:46;;;;;;;9.95;8.98;;;;;;;32.85;56.31;100819.84;1714878;84;21063;-73
2022/07/05 06:21:13;;;;;;;11.90;9.10;;;;;;;33.03;55.60;100821.87;1713834;84;21107;-73
2022/07/05 06:23:41;;;;;;;15.53;8.65;;;;;;;33.00;55.74;100816.94;1714770;84;21635;-73
2022/07/05 06:26:08;;;;;;;13.25;8.05;;;;;;;33.13;54.63;100822.28;1714988;84;20993;-73
2022/07/05 06:28:35;;;;;;;10.50;8.13;;;;;;;33.14;54.28;100824.43;1715094;83;21086;-73
2022/07/05 06:31:02;;;;;;;10.25;7.50;;;;;;;33.32;53.42;100818.44;1714746;83;21076;-73
2022/07/05 06:33:30;;;;;;;8.70;7.80;;;;;;;33.17;52.14;100818.66;1714815;84;21048;-73
2022/07/05 06:35:57;;;;;;;9.83;8.33;;;;;;;33.32;52.22;100814.43;1693597;83;21020;-73
2022/07/05 06:38:24;;;;;;;10.45;7.70;;;;;;;33.45;51.73;100816.22;1706506;81;21115;-73
2022/07/05 06:40:51;;;;;;;9.58;7.83;;;;;;;33.56;50.66;100812.06;1710132;83;21071;-74
2022/07/05 06:43:19;;;;;;;8.73;7.92;;;;;;;33.83;51.01;100810.94;1713898;84;21096;-73
2022/07/05 06:45:48;;;;;;;12.88;7.28;;;;;;;34.03;50.16;100810.82;1712336;83;21051;-72
2022/07/05 06:48:15;;;;;;;12.50;7.55;;;;;;;34.05;47.86;100806.08;1713715;84;21142;-73
2022/07/05 06:50:44;;;;;;;8.53;6.90;;;;;;;34.16;49.86;100807.78;1713685;84;21102;-73
2022/07/05 06:53:12;;;;;;;8.98;6.40;;;;;;;34.15;46.84;100804.83;1713937;84;21073;-73
2022/07/05 06:55:44;;;;;;;9.78;6.47;;;;;;;34.05;47.07;100803.41;1714028;84;21042;-73
2022/07/05 06:58:08;;;;;;;8.63;7.42;;;;;;;34.31;46.83;100808.30;1713449;84;21064;-73
2022/07/05 07:00:36;;;;;;;10.65;7.60;;;;;;;34.43;46.49;100796.36;1713515;84;21299;-73
2022/07/05 07:03:03;;;;;;;7.75;7.00;;;;;;;34.55;46.58;100803.16;1713817;84;21068;-73
2022/07/05 07:05:31;;;;;;;10.78;6.97;;;;;;;34.61;46.26;100799.59;1713821;83;21555;-73
2022/07/05 07:10:44;;;;;;;8.35;7.30;;;;;;;34.73;47.43;100795.19;1720811;83;21103;-73
2022/07/05 07:13:12;;;;;;;12.20;8.38;;;;;;;34.96;46.34;100791.89;1720853;83;21146;-73
2022/07/05 07:15:40;;;;;;;9.05;7.70;;;;;;;34.81;45.79;100794.09;1720847;83;21583;-73
2022/07/05 07:18:07;;;;;;;13.55;9.68;;;;;;;34.96;45.10;100791.05;1720565;83;21122;-73
2022/07/05 07:20:34;;;;;;;12.23;8.03;;;;;;;35.05;45.67;100789.73;1707533;83;21575;-73
2022/07/05 07:23:01;;;;;;;11.93;7.90;;;;;;;35.17;45.76;100796.00;1705181;83;21131;-72
2022/07/05 07:25:30;;;;;;;10.75;8.70;;;;;;;35.08;46.48;100794.65;1720258;83;21515;-74
2022/07/05 07:27:57;;;;;;;11.10;8.58;;;;;;;35.28;49.01;100792.58;1720319;83;21547;-73
2022/07/05 07:30:28;;;;;;;9.98;8.10;;;;;;;35.11;47.26;100799.02;1720892;83;21111;-73
2022/07/05 07:32:57;;;;;;;10.35;8.93;;;;;;;35.08;47.86;100798.14;1721083;83;22244;-73
2022/07/05 07:35:24;;;;;;;12.28;8.98;;;;;;;35.26;47.14;100801.86;1721293;83;21028;-73
2022/07/05 07:37:51;;;;;;;18.73;11.48;;;;;;;35.28;47.26;100803.30;1721402;83;21563;-73
2022/07/05 07:40:18;;;;;;;19.23;10.78;;;;;;;35.23;46.70;100802.32;1721298;83;21571;-72
2022/07/05 07:42:46;;;;;;;15.63;10.32;;;;;;;35.19;46.85;100805.95;1720844;83;21547;-73
2022/07/05 07:45:13;;;;;;;16.60;10.53;;;;;;;35.47;45.32;100802.73;1720618;83;21079;-73
2022/07/05 07:47:40;;;;;;;16.25;11.65;;;;;;;35.56;45.66;100808.59;1721324;83;21016;-72
2022/07/05 07:50:08;;;;;;;18.67;11.80;;;;;;;35.57;45.45;100812.11;1718872;83;21142;-73
2022/07/05 07:52:37;;;;;;;15.08;11.50;;;;;;;35.70;45.54;100810.08;1704877;82;21096;-73
2022/07/05 07:55:06;;;;;;;14.43;11.68;;;;;;;35.73;44.18;100805.31;1706062;83;21048;-73
2022/07/05 07:57:33;;;;;;;18.57;11.68;;;;;;;35.91;45.14;100805.28;1703593;83;21051;-72
2022/07/05 08:00:01;;;;;;;15.20;11.78;;;;;;;35.73;43.85;100807.48;1670993;84;21048;-73
2022/07/05 08:02:28;;;;;;;15.20;11.12;;;;;;;35.85;44.54;100807.50;1675915;83;21070;-72
2022/07/05 08:04:57;;;;;;;16.30;10.95;;;;;;;35.66;45.22;100800.05;1675317;84;21116;-72
2022/07/05 08:07:25;;;;;;;15.28;11.45;;;;;;;35.85;44.41;100802.14;1680493;83;21071;-72
2022/07/05 08:09:54;;;;;;;17.57;12.33;;;;;;;35.89;44.47;100799.33;1691438;84;21111;-73
2022/07/05 08:12:22;;;;;;;24.23;12.53;;;;;;;35.78;44.08;100797.42;1691900;84;21063;-73
2022/07/05 08:14:49;;;;;;;17.60;12.40;;;;;;;35.83;44.17;100801.05;1692207;84;21055;-72
2022/07/05 08:17:16;;;;;;;16.15;12.07;;;;;;;35.76;43.57;100794.16;1692405;84;21035;-72
2022/07/05 08:22:29;;;;;;;15.88;10.53;;;;;;;35.89;44.35;100785.94;1693067;84;21062;-72
2022/07/05 08:24:56;;;;;;;17.60;11.28;;;;;;;35.93;43.56;100784.44;1683087;84;21007;-72
2022/07/05 08:27:25;;;;;;;13.88;10.43;;;;;;;36.18;43.84;100783.46;1688140;83;21146;-72
2022/07/05 08:29:53;;;;;;;17.55;10.95;;;;;;;36.10;44.12;100788.06;1692837;84;21059;-72
2022/07/05 08:32:20;;;;;;;14.07;9.50;;;;;;;36.12;43.42;100787.03;1692959;83;21047;-72
2022/07/05 08:34:48;;;;;;;15.13;9.38;;;;;;;36.19;42.85;100789.91;1690979;84;21594;-73
2022/07/05 08:37:15;;;;;;;13.78;9.75;;;;;;;35.92;43.09;100790.82;1693002;83;21071;-72
2022/07/05 08:39:43;;;;;;;13.18;8.40;;;;;;;35.48;43.86;100783.47;1693226;84;21094;-73
2022/07/05 08:42:10;;;;;;;13.10;10.25;;;;;;;35.58;42.81;100789.09;1692932;83;21064;-73
2022/07/05 08:44:40;;;;;;;14.68;9.95;;;;;;;35.53;43.75;100784.96;1693276;84;21043;-73
2022/07/05 08:47:14;;;;;;;14.33;10.03;;;;;;;35.57;44.13;100786.14;1693262;84;21035;-73
2022/07/05 08:49:43;;;;;;;;;;;;;;;35.56;43.85;100787.17;1695927;84;21573;-73
2022/07/05 08:52:12;;;;;;;13.30;10.08;;;;;;;35.34;43.14;100788.17;1693401;84;20140;-73
2022/07/05 08:54:41;;;;;;;13.25;8.25;;;;;;;35.16;44.26;100785.02;1693149;84;21016;-72
2022/07/05 08:57:08;;;;;;;11.10;8.45;;;;;;;35.36;43.22;100782.07;1693349;83;21076;-74
2022/07/05 08:59:36;;;;;;;14.63;9.43;;;;;;;35.36;42.13;100784.75;1693060;84;21584;-72
2022/07/05 09:02:04;;;;;;;13.40;9.00;;;;;;;35.39;41.79;100780.30;1693511;84;21071;-73
2022/07/05 09:04:37;;;;;;;11.80;9.15;;;;;;;35.74;43.31;100784.19;1666195;84;21047;-73
2022/07/05 09:07:07;;;;;;;10.25;9.18;;;;;;;35.89;42.82;100780.05;1693503;84;21090;-73
2022/07/05 09:09:38;;;;;;;10.75;9.20;;;;;;;36.38;41.51;100779.92;1693254;84;21011;-73
2022/07/05 09:12:07;;;;;;;10.43;8.68;;;;;;;36.45;41.69;100780.61;1693207;84;21110;-73
2022/07/05 09:14:35;;;;;;;14.45;9.40;;;;;;;36.36;42.68;100777.19;1693306;84;21023;-74
2022/07/05 09:17:03;;;;;;;15.80;9.03;;;;;;;36.49;41.83;100786.33;1693361;84;21027;-72
2022/07/05 09:19:32;;;;;;;10.45;8.23;;;;;;;36.54;41.03;100778.92;1693366;84;21068;-72
2022/07/05 09:22:04;;;;;;;10.20;7.87;;;;;;;35.97;40.12;100780.25;1684581;84;21063;-73
2022/07/05 09:24:32;;;;;;;12.37;7.72;;;;;;;35.82;39.52;100783.34;1687951;84;21077;-72
2022/07/05 09:27:04;;;;;;;11.22;8.20;;;;;;;35.70;38.57;100779.28;1693046;84;21071;-73
2022/07/05 09:29:31;;;;;;;10.10;8.15;;;;;;;35.55;39.42;100780.20;1666545;85;21171;-73
2022/07/05 09:32:00;;;;;;;11.90;7.70;;;;;;;35.25;38.90;100783.66;1682525;84;21078;-73
2022/07/05 09:34:30;;;;;;;8.68;7.65;;;;;;;35.17;38.55;100771.11;1689014;83;21607;-73
2022/07/05 09:37:03;;;;;;;10.88;7.62;;;;;;;35.16;39.28;100774.81;1692602;84;21043;-73
2022/07/05 09:39:38;;;;;;;;;;;;;;;35.04;40.01;100768.05;1695458;84;21118;-72
2022/07/05 09:42:23;;;;;;;8.35;7.53;;;;;;;35.11;40.29;100762.89;1692884;83;20103;-72
2022/07/05 09:44:54;;;;;;;8.70;7.90;;;;;;;34.87;40.90;100759.77;1693217;83;21131;-73
2022/07/05 09:47:24;;;;;;;10.20;7.92;;;;;;;34.84;41.77;100762.91;1692834;84;21092;-73
2022/07/05 09:49:57;;;;;;;10.60;7.65;;;;;;;34.95;40.52;100761.34;1693142;84;21044;-73
2022/07/05 09:52:34;;;;;;;10.50;8.03;;;;;;;35.31;39.47;100760.00;1693610;84;21004;-72
2022/07/05 09:55:09;;;;;;;12.28;7.95;;;;;;;35.81;39.21;100763.47;1692935;84;21232;-73
2022/07/05 09:57:39;;;;;;;11.48;8.03;;;;;;;36.06;39.24;100758.75;1693012;84;21023;-72
2022/07/05 10:00:11;;;;;;;10.80;8.00;;;;;;;36.34;39.04;100759.98;1693380;84;21039;-72
2022/07/05 10:02:44;;;;;;;9.05;8.00;;;;;;;36.49;40.32;100754.95;1693041;84;21064;-73
2022/07/05 10:05:17;;;;;;;11.00;7.80;;;;;;;36.59;39.21;100760.27;1693417;84;21547;-72
2022/07/05 10:07:50;;;;;;;10.75;8.10;;;;;;;36.40;38.64;100756.91;1693425;84;21577;-73
2022/07/05 10:10:23;;;;;;;10.18;7.20;;;;;;;36.26;39.50;100759.00;1693205;83;21063;-73
2022/07/05 10:12:53;;;;;;;9.20;7.75;;;;;;;36.12;39.35;100749.52;1692328;84;21543;-73
2022/07/05 10:15:24;;;;;;;9.05;7.45;;;;;;;36.30;39.18;100753.46;1693200;83;21031;-72
2022/07/05 10:18:15;;;;;;;8.68;7.28;;;;;;;36.56;38.12;100755.36;1692224;83;21108;-72
2022/07/05 10:20:46;;;;;;;10.20;8.25;;;;;;;36.80;37.07;100745.45;1692936;84;21024;-73
2022/07/05 10:23:20;;;;;;;10.05;8.10;;;;;;;37.10;38.65;100751.44;1693113;84;21627;-73
2022/07/05 10:25:50;;;;;;;8.88;8.00;;;;;;;37.30;39.27;100744.88;1693437;84;21084;-73
2022/07/05 10:28:19;;;;;;;12.40;7.83;;;;;;;37.62;38.37;100736.37;1693235;84;21535;-72
2022/07/05 10:30:52;;;;;;;13.48;8.03;;;;;;;37.76;36.85;100740.38;1693073;83;21084;-73
2022/07/05 10:33:25;;;;;;;10.18;8.90;;;;;;;37.84;38.01;100737.81;1693531;84;20996;-73
2022/07/05 10:35:56;;;;;;;15.08;7.87;;;;;;;37.54;38.05;100740.22;1693410;84;21031;-72
2022/07/05 10:38:24;;;;;;;12.23;7.85;;;;;;;37.78;38.45;100741.48;1693324;84;21039;-72
2022/07/05 10:40:55;;;;;;;9.23;7.25;;;;;;;37.57;37.26;100744.29;1680180;84;21101;-73
2022/07/05 10:43:24;;;;;;;8.33;7.47;;;;;;;37.68;36.89;100734.86;1655577;85;21016;-73
2022/07/05 10:45:52;;;;;;;9.95;7.62;;;;;;;37.43;38.25;100729.00;1687743;83;21574;-72
2022/07/05 10:48:23;;;;;;;12.65;8.25;;;;;;;37.36;38.16;100735.06;1693268;84;21126;-73
2022/07/05 10:51:10;;;;;;;13.90;7.50;;;;;;;36.59;38.61;100741.50;1693463;85;21071;-72
2022/07/05 10:53:43;;;;;;;9.33;7.70;;;;;;;36.36;40.24;100738.31;1693270;84;21087;-73
2022/07/05 10:56:14;;;;;;;11.22;8.30;;;;;;;36.34;38.96;100730.50;1672790;84;21146;-72
2022/07/05 10:58:47;;;;;;;8.55;7.75;;;;;;;36.35;39.48;100726.76;1689903;83;21099;-73
2022/07/05 11:01:22;;;;;;;8.80;7.60;;;;;;;36.22;40.11;100737.73;1693886;84;21072;-73
2022/07/05 11:04:07;;;;;;;8.98;7.65;;;;;;;36.29;40.02;100742.43;1693598;84;21064;-72
2022/07/05 11:06:43;;;;;;;11.90;7.50;;;;;;;36.09;40.17;100734.69;1693396;84;21075;-72
2022/07/05 11:09:15;;;;;;;11.70;8.00;;;;;;;35.86;40.64;100736.30;1677008;85;21102;-72
2022/07/05 11:11:59;;;;;;;9.13;7.47;;;;;;;35.73;39.82;100732.99;1661287;85;21049;-72
2022/07/05 11:14:31;;;;;;;14.53;7.25;;;;;;;36.12;39.75;100720.84;1661439;85;21060;-73
2022/07/05 11:17:25;;;;;;;10.38;6.95;;;;;;;36.72;40.12;100723.02;1666236;85;21071;-73
2022/07/05 11:20:15;;;;;;;7.60;6.85;;;;;;;37.12;38.63;100728.96;1676535;85;21091;-73
2022/07/05 11:23:06;;;;;;;8.25;7.08;;;;;;;37.47;37.25;100718.90;1683847;84;21075;-73
2022/07/05 11:25:41;;;;;;;10.25;7.00;;;;;;;37.77;38.19;100723.72;1684112;85;21034;-74
2022/07/05 11:28:22;;;;;;;8.75;6.83;;;;;;;37.82;38.17;100721.13;1684013;83;21058;-73
2022/07/05 11:30:56;;;;;;;9.40;7.08;;;;;;;38.00;38.47;100713.32;1691748;83;21103;-73
2022/07/05 11:33:44;;;;;;;8.23;7.40;;;;;;;37.67;36.73;100714.95;1693353;84;21485;-72